createdAt,value
2023-09-27T00:01:29.060Z,80.10
2023-09-27T00:09:41.067Z,80.10
2023-09-27T00:17:48.158Z,80.50
2023-09-27T00:25:56.300Z,80.30
2023-09-27T00:34:01.770Z,80.50
2023-09-27T00:42:09.859Z,80.90
2023-09-27T00:50:15.482Z,81.10
2023-09-27T00:58:24.655Z,81.40
2023-09-27T01:06:30.622Z,81.70
2023-09-27T01:14:39.022Z,81.70
2023-09-27T01:22:44.525Z,81.60
2023-09-27T01:30:52.559Z,81.60
2023-09-27T01:38:58.106Z,82.10
2023-09-27T01:47:06.346Z,81.90
2023-09-27T01:55:12.551Z,82.30
2023-09-27T02:03:20.692Z,82.00
2023-09-27T02:11:27.017Z,81.60
2023-09-27T02:19:35.712Z,82.20
2023-09-27T02:27:41.414Z,82.40
2023-09-27T02:35:49.471Z,82.60
2023-09-27T02:43:55.040Z,82.80
2023-09-27T02:52:03.083Z,83.70
2023-09-27T03:00:10.345Z,82.80
2023-09-27T03:08:19.067Z,83.30
2023-09-27T03:16:25.034Z,84.00
2023-09-27T03:24:39.526Z,84.30
2023-09-27T03:32:45.188Z,84.70
2023-09-27T03:40:53.284Z,85.70
2023-09-27T03:48:59.029Z,85.60
2023-09-27T03:57:07.437Z,86.10
2023-09-27T04:05:13.714Z,86.30
2023-09-27T04:13:21.926Z,86.50
2023-09-27T04:21:27.453Z,86.70
2023-09-27T04:29:35.980Z,87.40
2023-09-27T04:37:41.844Z,87.50
2023-09-27T04:45:50.682Z,87.40
2023-09-27T04:53:56.267Z,87.60
2023-09-27T05:02:13.305Z,88.20
2023-09-27T05:10:19.016Z,88.20
2023-09-27T05:18:28.061Z,87.50
2023-09-27T05:26:34.292Z,87.40
2023-09-27T05:34:42.500Z,87.00
2023-09-27T05:42:47.950Z,86.20
2023-09-27T05:50:56.011Z,85.00
2023-09-27T05:59:03.069Z,83.70
2023-09-27T06:07:14.651Z,84.30
2023-09-27T06:15:20.874Z,83.80
2023-09-27T06:23:29.043Z,81.20
2023-09-27T06:31:35.574Z,78.80
2023-09-27T06:39:43.693Z,76.50
2023-09-27T06:47:50.390Z,76.80
2023-09-27T06:55:58.651Z,73.10
2023-09-27T07:04:05.182Z,72.90
2023-09-27T07:12:13.353Z,73.60
2023-09-27T07:20:25.909Z,71.60
2023-09-27T07:28:35.467Z,71.10
2023-09-27T07:36:40.884Z,70.50
2023-09-27T07:44:48.875Z,68.90
2023-09-27T07:52:54.276Z,68.40
2023-09-27T08:01:02.370Z,67.20
2023-09-27T08:09:10.763Z,66.60
2023-09-27T08:17:22.965Z,66.90
2023-09-27T08:25:28.512Z,64.40
2023-09-27T08:33:37.123Z,59.70
2023-09-27T08:41:42.900Z,60.70
2023-09-27T08:49:52.545Z,59.90
2023-09-27T08:57:59.827Z,58.10
2023-09-27T09:06:12.382Z,57.30
2023-09-27T09:14:18.612Z,57.60
2023-09-27T09:22:26.788Z,55.10
2023-09-27T09:30:39.027Z,55.60
2023-09-27T09:38:47.177Z,56.50
2023-09-27T09:46:53.335Z,54.10
2023-09-27T09:55:15.245Z,48.30
2023-09-27T10:03:26.575Z,38.70
2023-09-27T10:11:36.595Z,34.60
2023-09-27T10:19:44.321Z,30.90
2023-09-27T10:28:11.605Z,29.20
2023-09-27T10:36:34.181Z,28.70
2023-09-27T10:44:45.043Z,28.20
2023-09-27T10:52:50.844Z,28.40
2023-09-27T11:01:01.897Z,28.00
2023-09-27T11:09:08.761Z,28.00
2023-09-27T11:17:26.931Z,28.00
2023-09-27T11:25:32.990Z,28.60
2023-09-27T11:33:41.121Z,27.90
2023-09-27T11:41:47.701Z,26.80
2023-09-27T11:49:56.426Z,29.90
2023-09-27T11:58:02.881Z,35.50
2023-09-27T12:06:12.303Z,40.10
2023-09-27T12:14:17.913Z,43.30
2023-09-27T12:22:25.991Z,44.60
2023-09-27T12:30:31.889Z,47.00
2023-09-27T12:38:41.446Z,47.50
2023-09-27T12:46:46.918Z,48.60
2023-09-27T12:54:56.524Z,49.30
2023-09-27T13:03:02.047Z,48.70
2023-09-27T13:11:10.228Z,48.40
2023-09-27T13:19:15.842Z,47.10
2023-09-27T13:27:23.917Z,46.80
2023-09-27T13:35:30.001Z,46.40
2023-09-27T13:43:38.107Z,46.90
2023-09-27T13:51:44.905Z,46.80
2023-09-27T13:59:52.953Z,47.10
2023-09-27T14:07:58.567Z,47.10
2023-09-27T14:16:08.565Z,47.10
2023-09-27T14:24:14.110Z,46.90
2023-09-27T14:32:23.592Z,47.30
2023-09-27T14:40:29.176Z,47.40
2023-09-27T14:48:37.501Z,47.20
2023-09-27T14:56:44.286Z,48.10
2023-09-27T15:04:52.472Z,48.20
2023-09-27T15:12:57.987Z,47.90
2023-09-27T15:21:06.126Z,48.80
2023-09-27T15:29:12.023Z,48.30
2023-09-27T15:37:20.073Z,48.40
2023-09-27T15:45:26.260Z,48.90
2023-09-27T15:53:38.880Z,49.10
2023-09-27T16:01:44.689Z,49.40
2023-09-27T16:09:52.869Z,49.60
2023-09-27T16:17:58.506Z,50.50
2023-09-27T16:26:06.621Z,51.40
2023-09-27T16:34:12.418Z,51.90
2023-09-27T16:42:20.526Z,52.80
2023-09-27T16:50:26.222Z,53.80
2023-09-27T16:58:34.299Z,52.60
2023-09-27T17:06:39.834Z,53.40
2023-09-27T17:14:47.954Z,54.50
2023-09-27T17:22:53.480Z,54.90
2023-09-27T17:31:02.157Z,56.80
2023-09-27T17:39:08.611Z,58.20
2023-09-27T17:47:21.096Z,59.30
2023-09-27T17:55:27.665Z,61.70
2023-09-27T18:03:39.347Z,62.30
2023-09-27T18:11:44.866Z,63.70
2023-09-27T18:19:55.549Z,64.30
2023-09-27T18:28:01.212Z,65.30
2023-09-27T18:36:09.825Z,65.20
2023-09-27T18:44:16.052Z,65.30
2023-09-27T18:52:25.310Z,65.20
2023-09-27T19:00:33.658Z,65.70
2023-09-27T19:08:41.829Z,65.60
2023-09-27T19:16:47.710Z,66.20
2023-09-27T19:24:58.827Z,66.60
2023-09-27T19:33:04.288Z,67.20
2023-09-27T19:41:12.858Z,67.40
2023-09-27T19:49:21.392Z,67.70
2023-09-27T19:57:29.910Z,68.60
2023-09-27T20:05:35.338Z,68.70
2023-09-27T20:13:44.152Z,69.20
2023-09-27T20:21:51.671Z,69.80
2023-09-27T20:29:59.567Z,70.40
2023-09-27T20:38:09.282Z,71.00
2023-09-27T20:46:25.444Z,73.00
2023-09-27T20:54:31.137Z,72.60
2023-09-27T21:02:40.840Z,72.60
2023-09-27T21:10:46.222Z,72.90
2023-09-27T21:18:55.749Z,72.90
2023-09-27T21:27:01.752Z,73.50
2023-09-27T21:35:11.037Z,73.20
2023-09-27T21:43:16.298Z,73.80
2023-09-27T21:51:24.130Z,73.80
2023-09-27T21:59:29.449Z,74.10
2023-09-27T22:07:37.398Z,73.90
2023-09-27T22:15:42.689Z,74.70
2023-09-27T22:23:51.019Z,74.90
2023-09-27T22:31:59.126Z,75.30
2023-09-27T22:40:17.380Z,75.50
2023-09-27T22:48:22.941Z,75.80
2023-09-27T22:56:31.114Z,75.90
2023-09-27T23:04:36.400Z,76.70
2023-09-27T23:12:44.407Z,76.80
2023-09-27T23:20:49.719Z,77.10
2023-09-27T23:29:18.203Z,76.90
2023-09-27T23:37:32.321Z,77.20
2023-09-27T23:45:42.041Z,77.50
2023-09-27T23:53:48.180Z,78.00
